MMOX

Details ICAO MMOX (OAX)
Name Xoxocotlan Intl
Region Mexico
Timezone America/Mexico_City (UTC-5.0)
Plans Departing 55
Arriving 70
Stats Elevation 4,987 ft / 1,520 m (AMSL)
Location 16.998600° -96.726000°
Runways 1
Magnetic Variation 3.683° E
Sunrise 2018-10-20 12:22:08 UTC / 2018-10-20 07:22:08 Local
Sunset 2018-10-21 00:03:29 UTC / 2018-10-20 19:03:29 Local
Advertisement - Login to hide

Runways

ID Width Length Bearing (true/mag) Surface Threshold Overrun Markings Lighting
01 148 ft / 45 m 8,072 ft / 2,460 m 15.61° / 11.93° ASPHALT 0 ft / 0 m 187 ft / 57 m APP EDGE THRESHOLD SALS
19 148 ft / 45 m 8,072 ft / 2,460 m 195.62° / 191.93° ASPHALT 0 ft / 0 m 187 ft / 57 m APP EDGE THRESHOLD

Map

Weather


0- 5 10 15 20 25 30 35+ Temperature / °C

Clouds and Precipitation
Forecast for 2018-10-20 06:00 UTC. Updated 4 hours ago

Ground ~20,000 ft ~40,000 ft Winds

METAR

Not found

TAF

TAF MMOX 200522Z 2006/2106 06005KT P6SM BKN020 OVC080 TEMPO 2011/2015 5SM -RA BKN020 FM201800 36010KT P6SM BKN020CB BKN080 OVC250 TEMPO 2019/2023 4SM TSRA OVC020CB FM210500 04005KT P6SM BKN020 OVC080

Frequencies

Tower 118.30 MHz Oaxaca Tower
Approach 121.10 MHz Oaxaca Approach
Warning: Do not use this data for real-world aviation or navigation. No guarantee of current accuracy is given.